Time;durP1;ratioP1;P1;durP2;ratioP2;P2;SDS_P1;SDS_P2;PMS_P1;PMS_P2;Temp;Humidity;BMP_temperature;BMP_pressure;BME280_temperature;BME280_humidity;BME280_pressure;Samples;Min_cycle;Max_cycle;Signal;HPM_P1;HPM_P2
2022/03/06 00:01:04;;;;;;;27.08;15.00;;;;;;;-1.74;100.00;96505.72;5083328;28;20063;-62
2022/03/06 00:03:34;;;;;;;24.70;14.07;;;;;;;-1.73;100.00;96503.03;5085502;28;20076;-58
2022/03/06 00:06:02;;;;;;;23.88;14.10;;;;;;;-1.70;100.00;96495.16;5088743;28;20118;-57
2022/03/06 00:08:31;;;;;;;27.75;15.00;;;;;;;-1.69;100.00;96489.09;5086853;28;20490;-60
2022/03/06 00:10:59;;;;;;;24.48;14.27;;;;;;;-1.67;100.00;96489.00;5086784;28;20080;-60
2022/03/06 00:13:27;;;;;;;24.75;15.10;;;;;;;-1.78;100.00;96494.66;5087543;28;20068;-60
2022/03/06 00:15:55;;;;;;;25.58;14.73;;;;;;;-1.81;100.00;96492.22;5086733;28;20055;-57
2022/03/06 00:18:24;;;;;;;27.30;15.95;;;;;;;-1.80;100.00;96488.72;5088091;28;20070;-62
2022/03/06 00:20:55;;;;;;;25.27;15.57;;;;;;;-1.83;100.00;96488.84;5082289;28;20056;-60
2022/03/06 00:23:24;;;;;;;30.05;17.00;;;;;;;-1.78;100.00;96496.41;5067622;28;20064;-60
2022/03/06 00:25:52;;;;;;;29.73;16.95;;;;;;;-1.84;100.00;96496.69;5084041;28;20563;-56
2022/03/06 00:28:20;;;;;;;28.17;16.40;;;;;;;-1.78;100.00;96493.84;5081801;28;20064;-61
2022/03/06 00:30:49;;;;;;;30.38;15.65;;;;;;;-1.76;100.00;96498.00;5087776;28;20466;-57
2022/03/06 00:33:17;;;;;;;29.08;16.73;;;;;;;-1.73;100.00;96502.19;5087526;28;20521;-57
2022/03/06 00:35:46;;;;;;;26.23;14.95;;;;;;;-1.80;100.00;96493.06;5086043;28;20059;-61
2022/03/06 00:38:15;;;;;;;26.50;14.68;;;;;;;-1.89;100.00;96490.88;5085555;28;20075;-58
2022/03/06 00:40:45;;;;;;;27.98;15.40;;;;;;;-1.95;100.00;96497.16;5087236;28;20122;-61
2022/03/06 00:43:15;;;;;;;28.05;15.23;;;;;;;-2.07;100.00;96497.69;5083798;28;20537;-62
2022/03/06 00:45:43;;;;;;;26.90;16.10;;;;;;;-2.04;100.00;96497.56;5087804;28;20068;-58
2022/03/06 00:48:12;;;;;;;28.52;16.10;;;;;;;-2.05;100.00;96504.47;5087830;28;20070;-62
2022/03/06 00:50:41;;;;;;;27.15;15.20;;;;;;;-2.01;100.00;96503.44;5085440;27;20074;-62
2022/03/06 00:53:09;;;;;;;27.40;15.50;;;;;;;-1.99;100.00;96495.63;5082306;28;20085;-60
2022/03/06 00:55:39;;;;;;;27.15;15.15;;;;;;;-2.00;100.00;96502.50;5080318;28;20082;-60
2022/03/06 00:58:09;;;;;;;29.93;15.27;;;;;;;-2.03;100.00;96497.50;5084129;28;20070;-61
2022/03/06 01:00:39;;;;;;;26.27;15.77;;;;;;;-2.00;100.00;96499.09;5082489;28;20063;-62
2022/03/06 01:03:09;;;;;;;28.42;16.35;;;;;;;-1.90;100.00;96497.78;5082919;28;20070;-58
2022/03/06 01:05:38;;;;;;;27.98;16.25;;;;;;;-1.92;100.00;96497.88;5087330;28;20087;-59
2022/03/06 01:08:07;;;;;;;30.08;16.00;;;;;;;-1.93;100.00;96495.34;5084501;28;20472;-58
2022/03/06 01:10:37;;;;;;;25.90;15.95;;;;;;;-1.96;100.00;96495.50;5085033;28;20064;-56
2022/03/06 01:13:07;;;;;;;27.95;15.27;;;;;;;-1.90;100.00;96497.78;5085598;28;20074;-50
2022/03/06 01:15:37;;;;;;;32.08;16.80;;;;;;;-1.97;100.00;96494.63;5080669;28;20094;-58
2022/03/06 01:18:06;;;;;;;25.63;15.88;;;;;;;-2.01;100.00;96492.25;5083695;28;20078;-60
2022/03/06 01:20:35;;;;;;;28.17;17.87;;;;;;;-1.99;100.00;96499.03;5078716;28;20091;-61
2022/03/06 01:23:04;;;;;;;26.30;14.77;;;;;;;-2.10;100.00;96500.41;5082772;28;20117;-61
2022/03/06 01:25:32;;;;;;;25.30;15.20;;;;;;;-2.22;100.00;96500.03;5080446;28;20083;-58
2022/03/06 01:28:01;;;;;;;33.38;17.00;;;;;;;-2.15;100.00;96501.44;5086351;28;20181;-63
2022/03/06 01:30:30;;;;;;;28.50;15.57;;;;;;;-2.11;100.00;96496.97;5082043;28;20463;-60
2022/03/06 01:33:00;;;;;;;29.17;16.13;;;;;;;-2.21;100.00;96509.44;5083417;28;20138;-62
2022/03/06 01:35:28;;;;;;;28.70;16.13;;;;;;;-2.18;100.00;96491.25;5084926;28;20072;-60
2022/03/06 01:37:56;;;;;;;29.30;17.00;;;;;;;-2.24;100.00;96506.16;5080837;28;20079;-60
2022/03/06 01:40:24;;;;;;;27.63;15.85;;;;;;;-2.24;100.00;96496.66;5083088;28;20544;-59
2022/03/06 01:42:53;;;;;;;32.83;16.88;;;;;;;-2.25;100.00;96489.00;5084911;28;20071;-58
2022/03/06 01:45:23;;;;;;;27.33;16.08;;;;;;;-2.24;100.00;96495.81;5082315;28;20154;-55
2022/03/06 01:47:53;;;;;;;30.10;16.58;;;;;;;-2.22;100.00;96494.03;5083305;28;20067;-60
2022/03/06 01:50:24;;;;;;;28.90;16.85;;;;;;;-2.28;100.00;96496.88;5080971;28;20223;-62
2022/03/06 01:52:55;;;;;;;31.00;17.05;;;;;;;-2.35;100.00;96491.13;5079958;28;20084;-58
2022/03/06 01:55:24;;;;;;;32.13;17.15;;;;;;;-2.31;100.00;96491.84;5085085;28;20063;-57
2022/03/06 01:57:54;;;;;;;31.87;16.63;;;;;;;-2.27;100.00;96494.25;5082534;28;20538;-64
2022/03/06 02:00:24;;;;;;;28.30;17.35;;;;;;;-2.31;100.00;96486.66;5079485;28;20078;-59
2022/03/06 02:02:54;;;;;;;32.13;17.25;;;;;;;-2.24;100.00;96491.50;5083121;28;20060;-60
2022/03/06 02:05:23;;;;;;;26.45;17.05;;;;;;;-2.27;100.00;96490.78;5081849;28;20070;-59
2022/03/06 02:07:51;;;;;;;28.10;16.20;;;;;;;-2.28;100.00;96489.13;5079399;28;20083;-58
2022/03/06 02:10:21;;;;;;;28.08;16.20;;;;;;;-2.37;100.00;96490.38;5083505;28;20064;-60
2022/03/06 02:12:50;;;;;;;29.70;17.00;;;;;;;-2.40;100.00;96493.06;5079645;28;20649;-60
2022/03/06 02:15:18;;;;;;;30.38;16.65;;;;;;;-2.43;100.00;96490.63;5083729;28;20055;-56
2022/03/06 02:17:47;;;;;;;30.35;16.10;;;;;;;-2.39;100.00;96493.00;5080642;28;20044;-59
2022/03/06 02:20:18;;;;;;;27.73;16.73;;;;;;;-2.46;100.00;96490.75;5080835;28;20067;-60
2022/03/06 02:22:49;;;;;;;31.83;16.60;;;;;;;-2.49;100.00;96488.28;5082386;28;20513;-60
2022/03/06 02:25:19;;;;;;;30.23;16.58;;;;;;;-2.45;100.00;96495.84;5082616;28;20056;-57
2022/03/06 02:27:48;;;;;;;;;;;;;;;-2.47;100.00;96494.25;5083470;28;20079;-60
2022/03/06 02:30:18;;;;;;;33.40;16.58;;;;;;;-2.48;100.00;96496.00;5084834;28;19963;-58
2022/03/06 02:32:48;;;;;;;32.85;16.98;;;;;;;-2.50;100.00;96487.47;5081235;28;20068;-60
2022/03/06 02:35:17;;;;;;;31.02;16.85;;;;;;;-2.60;100.00;96491.31;5078640;28;20541;-59
2022/03/06 02:37:47;;;;;;;31.38;16.70;;;;;;;-2.54;100.00;96497.97;5083145;28;20068;-60
2022/03/06 02:40:17;;;;;;;29.23;16.92;;;;;;;-2.52;100.00;96504.75;5078028;28;20070;-59
2022/03/06 02:42:46;;;;;;;29.80;17.20;;;;;;;-2.46;100.00;96493.31;5080563;28;20071;-61
2022/03/06 02:45:17;;;;;;;28.05;17.08;;;;;;;-2.48;100.00;96492.53;5083626;28;20048;-59
2022/03/06 02:47:46;;;;;;;32.78;16.88;;;;;;;-2.58;100.00;96505.03;5080328;28;20072;-61
2022/03/06 02:50:16;;;;;;;30.13;17.08;;;;;;;-2.52;100.00;96498.75;5081892;28;20076;-59
2022/03/06 02:52:45;;;;;;;28.42;17.27;;;;;;;-2.69;100.00;96491.69;5082454;28;20062;-60
2022/03/06 02:55:16;;;;;;;32.05;17.17;;;;;;;-2.51;100.00;96497.84;5078800;28;20071;-58
2022/03/06 02:57:45;;;;;;;30.38;16.45;;;;;;;-2.47;100.00;96496.81;5082544;28;20076;-59
2022/03/06 03:00:15;;;;;;;29.13;17.20;;;;;;;-2.54;100.00;96498.81;5078045;28;20075;-61
2022/03/06 03:02:43;;;;;;;28.23;17.05;;;;;;;-2.49;100.00;96499.44;5093980;28;20067;-59
2022/03/06 03:05:13;;;;;;;29.70;17.70;;;;;;;-2.49;100.00;96502.03;5080658;28;20083;-57
2022/03/06 03:07:42;;;;;;;32.42;16.60;;;;;;;-2.45;100.00;96503.56;5080748;28;20076;-59
2022/03/06 03:10:12;;;;;;;30.73;17.58;;;;;;;-2.44;100.00;96504.44;5076653;28;20071;-61
2022/03/06 03:12:42;;;;;;;31.08;16.83;;;;;;;-2.45;100.00;96506.16;5083521;28;20498;-57
2022/03/06 03:15:11;;;;;;;29.60;17.40;;;;;;;-2.42;100.00;96508.63;5080316;28;20537;-59
2022/03/06 03:17:40;;;;;;;39.70;22.85;;;;;;;-2.42;100.00;96511.19;5077785;28;20068;-54
2022/03/06 03:20:10;;;;;;;30.02;17.42;;;;;;;-2.43;100.00;96514.69;5078023;28;20585;-59
2022/03/06 03:22:38;;;;;;;33.88;18.05;;;;;;;-2.46;100.00;96509.66;5080394;28;20078;-58
2022/03/06 03:25:07;;;;;;;32.10;17.88;;;;;;;-2.43;100.00;96513.84;5080020;28;20068;-59
2022/03/06 03:27:37;;;;;;;30.35;18.02;;;;;;;-2.43;100.00;96512.09;5084337;28;20060;-59
2022/03/06 03:30:09;;;;;;;32.83;17.60;;;;;;;-2.48;100.00;96518.34;5083690;28;20068;-54
2022/03/06 03:32:38;;;;;;;33.00;20.05;;;;;;;-2.42;100.00;96515.53;5082311;28;20064;-60
2022/03/06 03:35:07;;;;;;;30.30;18.63;;;;;;;-2.44;100.00;96522.50;5083215;28;20084;-54
2022/03/06 03:37:36;;;;;;;34.20;17.02;;;;;;;-2.32;100.00;96523.72;5084393;28;20075;-55
2022/03/06 03:40:07;;;;;;;31.27;17.67;;;;;;;-2.40;100.00;96521.47;5086591;28;20063;-58
2022/03/06 03:42:35;;;;;;;;;;;;;;;-2.42;100.00;96524.09;5084338;28;20509;-54
2022/03/06 03:45:03;;;;;;;34.78;17.42;;;;;;;-2.38;100.00;96519.66;5084619;28;20385;-57
2022/03/06 03:47:34;;;;;;;31.92;17.65;;;;;;;-2.33;100.00;96514.31;5086804;28;20068;-59
2022/03/06 03:50:04;;;;;;;29.42;15.93;;;;;;;-2.38;100.00;96532.56;5083286;28;20546;-58
2022/03/06 03:52:32;;;;;;;31.88;18.50;;;;;;;-2.30;100.00;96527.09;5085515;28;20118;-59
2022/03/06 03:55:01;;;;;;;27.83;16.23;;;;;;;-2.51;100.00;96526.22;5085553;28;20063;-57
2022/03/06 03:57:29;;;;;;;30.02;16.13;;;;;;;-2.55;100.00;96535.00;5085989;28;20086;-57
2022/03/06 03:59:57;;;;;;;30.80;18.30;;;;;;;-2.50;100.00;96535.69;5080619;28;20074;-60
2022/03/06 04:02:25;;;;;;;29.42;16.55;;;;;;;-2.51;100.00;96542.59;5086060;28;20561;-61
2022/03/06 04:04:55;;;;;;;31.13;17.92;;;;;;;-2.42;100.00;96539.59;5084503;28;20095;-62
2022/03/06 04:07:23;;;;;;;32.22;17.52;;;;;;;-2.55;100.00;96537.59;5086354;28;20082;-60
2022/03/06 04:09:52;;;;;;;30.40;17.15;;;;;;;-2.56;100.00;96546.25;5085794;28;20067;-56
2022/03/06 04:12:20;;;;;;;30.63;17.40;;;;;;;-2.60;100.00;96542.13;5085280;28;20075;-62
2022/03/06 04:14:48;;;;;;;27.55;16.25;;;;;;;-2.54;100.00;96539.28;5085729;28;20067;-62
2022/03/06 04:17:16;;;;;;;36.20;17.92;;;;;;;-2.55;100.00;96540.16;5082926;28;20115;-58
2022/03/06 04:19:45;;;;;;;31.10;17.23;;;;;;;-2.57;100.00;96542.00;5089881;28;20075;-58
2022/03/06 04:22:14;;;;;;;32.70;18.33;;;;;;;-2.59;100.00;96541.19;5084281;28;20509;-57
2022/03/06 04:24:42;;;;;;;30.47;16.67;;;;;;;-2.54;100.00;96541.88;5085032;28;20055;-55
2022/03/06 04:27:11;;;;;;;31.00;17.65;;;;;;;-2.42;100.00;96543.94;5084286;28;20064;-58
2022/03/06 04:29:39;;;;;;;29.75;16.80;;;;;;;-2.48;100.00;96549.34;5085685;28;20612;-61
2022/03/06 04:32:08;;;;;;;31.08;18.15;;;;;;;-2.39;100.00;96552.38;5084068;28;20088;-62
2022/03/06 04:34:37;;;;;;;32.25;17.88;;;;;;;-2.46;100.00;96550.97;5087621;28;20135;-58
2022/03/06 04:37:05;;;;;;;27.90;15.18;;;;;;;-2.51;100.00;96545.16;5080345;28;20482;-55
2022/03/06 04:39:38;;;;;;;29.13;17.00;;;;;;;-2.53;100.00;96546.97;5085589;28;20072;-55
2022/03/06 04:42:07;;;;;;;30.58;16.85;;;;;;;-2.52;100.00;96552.94;5083236;28;20059;-54
2022/03/06 04:44:35;;;;;;;32.80;17.35;;;;;;;-2.56;100.00;96562.56;5084479;28;20064;-54
2022/03/06 04:47:05;;;;;;;32.15;18.38;;;;;;;-2.58;100.00;96560.94;5085365;28;20093;-59
2022/03/06 04:49:33;;;;;;;28.33;17.13;;;;;;;-2.54;100.00;96557.34;5082425;28;20103;-55
2022/03/06 04:52:01;;;;;;;26.10;16.33;;;;;;;-2.54;100.00;96557.34;5085255;28;20067;-59
2022/03/06 04:54:29;;;;;;;35.95;17.23;;;;;;;-2.46;100.00;96563.03;5083071;28;20068;-56
2022/03/06 04:57:00;;;;;;;31.73;18.30;;;;;;;-2.59;100.00;96567.84;5085213;27;20548;-52
2022/03/06 04:59:29;;;;;;;29.77;17.17;;;;;;;-2.50;100.00;96559.75;5080810;28;20071;-58
2022/03/06 05:01:57;;;;;;;29.98;16.25;;;;;;;-2.51;100.00;96563.25;5083096;28;20084;-58
2022/03/06 05:04:25;;;;;;;31.35;17.98;;;;;;;-2.52;100.00;96561.53;5079996;28;20117;-59
2022/03/06 05:06:54;;;;;;;31.35;17.42;;;;;;;-2.46;100.00;96558.72;5082245;28;20068;-58
2022/03/06 05:09:22;;;;;;;30.70;17.42;;;;;;;-2.49;100.00;96555.41;5081843;28;20602;-62
2022/03/06 05:11:51;;;;;;;30.05;17.38;;;;;;;-2.45;100.00;96551.81;5082205;28;20075;-56
2022/03/06 05:14:20;;;;;;;30.95;18.20;;;;;;;-2.44;100.00;96562.09;5081265;28;20083;-53
2022/03/06 05:16:48;;;;;;;33.03;17.67;;;;;;;-2.43;100.00;96555.16;5082448;28;20536;-60
2022/03/06 05:19:17;;;;;;;31.05;17.73;;;;;;;-2.51;100.00;96560.66;5082190;28;20063;-55
2022/03/06 05:21:45;;;;;;;30.52;17.05;;;;;;;-2.44;100.00;96553.50;5081104;28;20067;-56
2022/03/06 05:24:13;;;;;;;30.40;16.73;;;;;;;-2.52;100.00;96558.94;5081355;28;20078;-57
2022/03/06 05:26:42;;;;;;;34.03;17.77;;;;;;;-2.51;100.00;96557.22;5083450;28;20067;-56
2022/03/06 05:29:10;;;;;;;32.03;18.95;;;;;;;-2.51;100.00;96570.13;5079925;28;20557;-59
2022/03/06 05:31:40;;;;;;;32.05;16.83;;;;;;;-2.50;100.00;96564.91;5081865;28;20463;-59
2022/03/06 05:34:08;;;;;;;34.30;18.05;;;;;;;-2.48;100.00;96563.13;5081620;28;20066;-58
2022/03/06 05:36:36;;;;;;;34.15;17.67;;;;;;;-2.52;100.00;96564.13;5082394;28;20059;-57
2022/03/06 05:39:04;;;;;;;34.00;19.15;;;;;;;-2.44;100.00;96569.00;5076852;28;20063;-62
2022/03/06 05:41:33;;;;;;;29.13;17.70;;;;;;;-2.45;100.00;96564.72;5081598;28;20115;-54
2022/03/06 05:44:01;;;;;;;32.40;19.60;;;;;;;-2.47;100.00;96577.69;5082596;28;20551;-50
2022/03/06 05:46:29;;;;;;;33.92;17.08;;;;;;;-2.40;100.00;96570.53;5079410;28;20087;-52
2022/03/06 05:48:59;;;;;;;30.55;18.20;;;;;;;-2.37;100.00;96570.41;5083138;28;20427;-58
2022/03/06 05:51:27;;;;;;;31.50;17.00;;;;;;;-2.40;100.00;96576.53;5081346;28;20063;-57
2022/03/06 05:53:55;;;;;;;32.58;17.48;;;;;;;-2.41;100.00;96579.16;5076845;28;20131;-57
2022/03/06 05:56:23;;;;;;;32.10;16.75;;;;;;;-2.46;100.00;96579.38;5082833;28;20090;-58
2022/03/06 05:58:52;;;;;;;32.05;18.17;;;;;;;-2.45;100.00;96585.38;5080599;28;20075;-58
2022/03/06 06:01:20;;;;;;;30.13;18.13;;;;;;;-2.38;100.00;96594.53;5082680;28;20061;-60
2022/03/06 06:03:49;;;;;;;33.17;18.63;;;;;;;-2.38;100.00;96579.88;5080287;28;20072;-60
2022/03/06 06:06:19;;;;;;;34.22;18.08;;;;;;;-2.38;100.00;96579.03;5080718;28;20064;-56
2022/03/06 06:08:47;;;;;;;33.30;18.17;;;;;;;-2.39;100.00;96583.38;5082042;28;20059;-58
2022/03/06 06:11:15;;;;;;;36.75;19.30;;;;;;;-2.40;100.00;96589.44;5081821;28;20492;-60
2022/03/06 06:13:44;;;;;;;32.17;18.23;;;;;;;-2.35;100.00;96578.91;5083293;28;20084;-54
2022/03/06 06:16:12;;;;;;;32.13;17.05;;;;;;;-2.30;100.00;96587.34;5080516;28;20068;-59
2022/03/06 06:18:40;;;;;;;34.85;18.02;;;;;;;-2.14;100.00;96579.78;5081398;28;20067;-58
2022/03/06 06:21:09;;;;;;;30.73;17.40;;;;;;;-2.20;100.00;96588.63;5081502;28;20064;-60
2022/03/06 06:23:39;;;;;;;31.63;17.80;;;;;;;-2.13;100.00;96589.22;5081317;28;20067;-62
2022/03/06 06:26:07;;;;;;;33.50;20.30;;;;;;;-1.97;100.00;96595.41;5081697;28;20078;-57
2022/03/06 06:28:35;;;;;;;31.05;17.30;;;;;;;-1.89;100.00;96587.34;5079732;28;20098;-58
2022/03/06 06:31:05;;;;;;;32.33;18.92;;;;;;;-1.91;100.00;96589.97;5082468;28;20075;-60
2022/03/06 06:33:34;;;;;;;31.48;18.70;;;;;;;-1.96;100.00;96588.50;5079913;28;20079;-59
2022/03/06 06:36:02;;;;;;;31.95;19.98;;;;;;;-1.96;100.00;96591.94;5082553;28;20064;-59
2022/03/06 06:38:31;;;;;;;33.72;18.40;;;;;;;-1.91;100.00;96597.72;5082512;28;20072;-60
2022/03/06 06:41:00;;;;;;;34.80;17.40;;;;;;;-1.93;100.00;96594.41;5082672;28;20653;-61
2022/03/06 06:43:29;;;;;;;32.08;17.70;;;;;;;-1.75;100.00;96599.69;5075812;28;20461;-61
2022/03/06 06:45:57;;;;;;;32.22;17.80;;;;;;;-1.75;100.00;96600.50;5081745;28;20060;-59
2022/03/06 06:48:26;;;;;;;32.05;19.60;;;;;;;-1.73;100.00;96590.94;5079061;28;20075;-58
2022/03/06 06:50:54;;;;;;;35.80;18.20;;;;;;;-1.39;100.00;96593.78;5079158;28;20067;-58
2022/03/06 06:53:22;;;;;;;31.92;18.02;;;;;;;-1.28;100.00;96592.38;5082514;28;20063;-59
2022/03/06 06:55:50;;;;;;;37.67;20.60;;;;;;;-1.31;100.00;96599.44;5084139;28;20083;-61
2022/03/06 06:58:20;;;;;;;31.27;17.67;;;;;;;-1.21;100.00;96601.53;5083656;28;22221;-56
2022/03/06 07:00:48;;;;;;;29.02;17.73;;;;;;;-1.10;100.00;96606.25;5079933;28;20066;-61
2022/03/06 07:03:17;;;;;;;32.85;18.42;;;;;;;-1.14;100.00;96603.88;5077881;28;20066;-61
2022/03/06 07:05:47;;;;;;;34.00;19.00;;;;;;;-1.01;100.00;96608.41;5083947;28;20064;-56
2022/03/06 07:08:15;;;;;;;36.27;18.23;;;;;;;-0.96;100.00;96603.88;5083527;28;20088;-60
2022/03/06 07:10:43;;;;;;;31.02;17.38;;;;;;;-1.00;100.00;96609.25;5083432;28;20107;-61
2022/03/06 07:13:11;;;;;;;31.30;17.30;;;;;;;-0.80;100.00;96611.75;5085090;28;20071;-60
2022/03/06 07:15:41;;;;;;;31.95;18.67;;;;;;;-0.70;100.00;96612.16;5078242;28;20072;-60
2022/03/06 07:18:09;;;;;;;31.10;18.45;;;;;;;-0.57;100.00;96609.84;5080175;28;20056;-63
2022/03/06 07:20:38;;;;;;;30.90;17.30;;;;;;;-0.54;100.00;96612.28;5082823;28;20103;-58
2022/03/06 07:23:06;;;;;;;25.20;14.90;;;;;;;-0.38;100.00;96617.56;5080841;28;20087;-57
2022/03/06 07:25:34;;;;;;;32.35;17.00;;;;;;;-0.02;100.00;96607.16;5084715;28;20079;-55
2022/03/06 07:28:03;;;;;;;32.53;17.83;;;;;;;0.13;100.00;96610.72;5080581;28;20083;-53
2022/03/06 07:30:31;;;;;;;25.83;16.55;;;;;;;0.19;100.00;96613.84;5083031;28;20064;-52
2022/03/06 07:33:01;;;;;;;28.63;15.93;;;;;;;0.05;100.00;96607.69;5078713;28;20572;-59
2022/03/06 07:35:30;;;;;;;29.52;16.30;;;;;;;0.18;100.00;96619.97;5078247;28;20075;-58
2022/03/06 07:37:58;;;;;;;29.08;16.88;;;;;;;-0.15;100.00;96612.09;5083169;28;20082;-62
2022/03/06 07:40:26;;;;;;;29.58;17.15;;;;;;;0.05;100.00;96605.09;5079851;28;20544;-61
2022/03/06 07:42:57;;;;;;;27.15;16.63;;;;;;;-0.06;100.00;96611.66;5078566;28;20548;-55
2022/03/06 07:45:26;;;;;;;26.95;16.92;;;;;;;0.11;100.00;96610.00;5080093;28;20090;-63
2022/03/06 07:47:55;;;;;;;25.60;15.30;;;;;;;0.01;100.00;96612.19;5081317;28;20060;-58
2022/03/06 07:50:26;;;;;;;25.60;15.32;;;;;;;0.18;100.00;96613.94;5079081;28;20064;-60
2022/03/06 07:52:56;;;;;;;30.02;15.63;;;;;;;0.36;100.00;96610.41;5076423;28;20091;-58
2022/03/06 07:55:24;;;;;;;27.75;16.52;;;;;;;0.49;100.00;96610.63;5077625;28;20075;-55
2022/03/06 07:57:52;;;;;;;26.73;16.02;;;;;;;0.84;100.00;96623.50;5086088;28;20059;-60
2022/03/06 08:00:20;;;;;;;26.02;15.98;;;;;;;0.89;100.00;96622.34;5079741;28;20087;-56
2022/03/06 08:02:48;;;;;;;25.88;15.50;;;;;;;1.01;100.00;96615.66;5075897;28;20106;-56
2022/03/06 08:05:17;;;;;;;24.77;14.25;;;;;;;1.19;100.00;96626.81;5080251;28;20072;-51
2022/03/06 08:07:47;;;;;;;25.02;14.60;;;;;;;1.04;100.00;96620.69;5085111;28;20076;-54
2022/03/06 08:10:15;;;;;;;23.90;14.43;;;;;;;0.72;100.00;96624.97;5088220;28;20078;-57
2022/03/06 08:12:43;;;;;;;29.10;19.05;;;;;;;0.93;100.00;96625.63;5079831;28;20075;-57
2022/03/06 08:15:11;;;;;;;28.67;16.65;;;;;;;1.08;100.00;96619.59;5083781;28;20525;-52
2022/03/06 08:17:40;;;;;;;25.65;15.90;;;;;;;1.22;100.00;96628.41;5083321;28;20082;-59
2022/03/06 08:20:10;;;;;;;26.33;14.57;;;;;;;1.23;100.00;96614.50;5085941;28;20119;-55
2022/03/06 08:22:38;;;;;;;26.92;16.77;;;;;;;1.21;100.00;96625.00;5087131;28;20082;-57
2022/03/06 08:25:09;;;;;;;21.95;13.13;;;;;;;1.42;100.00;96609.97;5080393;28;20072;-55
2022/03/06 08:27:37;;;;;;;;;;;;;;;1.71;100.00;96616.13;5085320;28;20798;-53
2022/03/06 08:30:07;;;;;;;23.27;15.43;;;;;;;1.46;100.00;96621.03;5085908;28;19948;-58
2022/03/06 08:32:35;;;;;;;;;;;;;;;1.66;100.00;96623.38;5087971;28;20063;-61
2022/03/06 08:35:04;;;;;;;19.95;12.75;;;;;;;1.48;100.00;96630.44;5096558;28;19974;-61
2022/03/06 08:37:32;;;;;;;21.52;12.40;;;;;;;1.33;100.00;96628.66;5090063;28;20076;-57
2022/03/06 08:40:01;;;;;;;22.52;13.00;;;;;;;1.80;100.00;96625.19;5084826;28;20056;-57
2022/03/06 08:42:30;;;;;;;20.65;12.55;;;;;;;1.60;100.00;96616.75;5091336;28;20094;-62
2022/03/06 08:44:59;;;;;;;21.15;12.60;;;;;;;1.84;100.00;96624.09;5084827;28;20078;-59
2022/03/06 08:47:27;;;;;;;22.00;13.15;;;;;;;1.78;100.00;96619.22;5089539;27;20064;-57
2022/03/06 08:49:55;;;;;;;14.90;9.52;;;;;;;1.86;100.00;96617.88;5090211;28;20086;-56
2022/03/06 08:52:23;;;;;;;20.23;11.88;;;;;;;2.07;100.00;96614.97;5088655;28;20071;-62
2022/03/06 08:54:51;;;;;;;18.58;12.07;;;;;;;2.05;100.00;96616.81;5090048;28;20537;-60
2022/03/06 08:57:20;;;;;;;18.52;12.90;;;;;;;2.01;100.00;96618.75;5085787;28;20850;-58
2022/03/06 08:59:49;;;;;;;23.58;16.23;;;;;;;1.86;100.00;96598.84;5085994;28;20040;-56
2022/03/06 09:02:18;;;;;;;15.75;9.65;;;;;;;1.88;100.00;96605.63;5081084;28;20792;-61
2022/03/06 09:04:46;;;;;;;18.92;11.63;;;;;;;2.44;100.00;96605.00;5081921;28;20084;-60
2022/03/06 09:07:14;;;;;;;23.70;13.60;;;;;;;2.55;100.00;96606.06;5085345;28;20071;-59
2022/03/06 09:09:43;;;;;;;19.27;12.30;;;;;;;2.01;100.00;96604.94;5081893;28;20060;-52
2022/03/06 09:12:11;;;;;;;16.05;10.38;;;;;;;2.26;95.35;96604.31;5082758;28;20063;-58
2022/03/06 09:14:39;;;;;;;20.10;12.93;;;;;;;2.52;92.66;96610.59;5080644;28;20079;-53
2022/03/06 09:17:09;;;;;;;18.85;10.02;;;;;;;2.58;93.20;96599.81;5085355;28;20110;-57
2022/03/06 09:19:38;;;;;;;14.68;10.57;;;;;;;2.24;88.33;96617.44;5084576;28;20082;-58
2022/03/06 09:22:07;;;;;;;12.02;8.95;;;;;;;2.26;90.54;96601.72;5082633;28;20063;-60
2022/03/06 09:24:35;;;;;;;20.65;12.70;;;;;;;2.90;91.52;96613.50;5086254;28;20503;-56
2022/03/06 09:27:04;;;;;;;20.98;13.38;;;;;;;2.74;87.49;96607.53;5089064;28;20068;-61
2022/03/06 09:29:32;;;;;;;18.48;11.88;;;;;;;2.89;85.52;96608.34;5087199;28;20071;-59
2022/03/06 09:32:00;;;;;;;18.58;11.90;;;;;;;3.16;84.72;96611.88;5083710;28;20083;-58
2022/03/06 09:34:30;;;;;;;20.40;14.25;;;;;;;2.97;79.90;96612.19;5088331;28;20090;-61
2022/03/06 09:36:58;;;;;;;15.77;10.68;;;;;;;2.98;80.47;96608.63;5082558;28;20075;-61
2022/03/06 09:39:26;;;;;;;14.80;9.80;;;;;;;3.03;78.13;96611.81;5087729;28;20449;-59
2022/03/06 09:41:56;;;;;;;16.85;9.98;;;;;;;2.89;78.83;96614.44;5081601;28;20067;-53
2022/03/06 09:44:25;;;;;;;13.15;9.95;;;;;;;2.84;75.58;96614.69;5082572;28;20083;-57
2022/03/06 09:46:56;;;;;;;20.20;13.32;;;;;;;3.23;78.45;96612.31;5086434;28;20080;-58
2022/03/06 09:49:26;;;;;;;17.35;11.15;;;;;;;3.42;72.70;96602.44;5082101;28;20079;-62
2022/03/06 09:51:56;;;;;;;19.25;13.40;;;;;;;3.19;74.17;96616.06;5086438;28;20064;-60
2022/03/06 09:54:24;;;;;;;16.70;10.45;;;;;;;3.13;73.82;96604.25;5085707;28;20067;-61
2022/03/06 09:56:53;;;;;;;16.20;9.95;;;;;;;3.16;72.76;96606.66;5085797;28;20066;-58
2022/03/06 09:59:21;;;;;;;18.77;12.40;;;;;;;3.26;71.55;96607.75;5084234;28;20080;-63
2022/03/06 10:01:49;;;;;;;16.05;10.35;;;;;;;3.49;70.87;96619.34;5085743;28;20088;-57
2022/03/06 10:04:24;;;;;;;18.88;12.60;;;;;;;3.55;71.00;96610.31;5084394;28;20072;-59
2022/03/06 10:07:01;;;;;;;18.98;11.57;;;;;;;3.35;68.58;96616.78;5085847;28;20548;-58
2022/03/06 10:09:30;;;;;;;18.58;11.43;;;;;;;3.55;68.79;96613.75;5084389;28;20079;-52
2022/03/06 10:11:59;;;;;;;15.77;11.45;;;;;;;3.65;65.22;96619.22;5076595;28;20075;-61
2022/03/06 10:14:38;;;;;;;15.90;10.40;;;;;;;3.59;62.28;96611.78;5081166;28;20071;-58
2022/03/06 10:17:11;;;;;;;17.70;11.15;;;;;;;3.50;63.93;96622.78;5084057;28;20675;-59
2022/03/06 10:19:56;;;;;;;18.48;11.45;;;;;;;3.75;61.21;96619.44;5088896;28;20076;-62
2022/03/06 10:22:27;;;;;;;13.68;9.32;;;;;;;3.24;59.32;96621.84;5085110;28;20062;-60
2022/03/06 10:24:58;;;;;;;16.92;10.93;;;;;;;3.42;58.96;96614.63;5079478;28;20457;-61
2022/03/06 10:27:47;;;;;;;14.43;9.40;;;;;;;3.65;59.36;96614.00;5083268;28;20063;-62
2022/03/06 10:30:29;;;;;;;14.60;9.80;;;;;;;3.93;57.17;96610.44;5081202;28;20067;-57
2022/03/06 10:32:59;;;;;;;14.75;9.40;;;;;;;4.01;57.53;96607.34;5084499;28;20459;-55
2022/03/06 10:35:36;;;;;;;15.00;11.40;;;;;;;3.87;56.77;96600.41;5078491;28;20052;-56
2022/03/06 10:38:22;;;;;;;16.35;10.05;;;;;;;3.83;56.53;96604.16;5082422;28;20467;-60
2022/03/06 10:40:51;;;;;;;16.58;10.38;;;;;;;3.95;55.10;96610.34;5077114;28;20080;-56
2022/03/06 10:43:22;;;;;;;16.63;11.40;;;;;;;4.19;55.87;96613.09;5080342;28;20094;-60
2022/03/06 10:45:52;;;;;;;15.43;10.85;;;;;;;4.18;54.69;96607.06;5085355;28;20114;-58
2022/03/06 10:48:22;;;;;;;9.95;7.75;;;;;;;4.05;56.09;96611.41;5079488;28;20062;-62
2022/03/06 10:50:59;;;;;;;16.25;10.65;;;;;;;4.05;57.09;96607.03;5082525;28;20067;-59
2022/03/06 10:53:29;;;;;;;15.65;10.10;;;;;;;4.25;57.61;96608.31;5082096;28;20514;-60
2022/03/06 10:56:07;;;;;;;16.20;10.73;;;;;;;4.41;56.46;96609.91;5092484;28;20082;-58
2022/03/06 10:58:37;;;;;;;14.32;10.38;;;;;;;4.46;55.34;96608.66;5081129;28;20474;-54
2022/03/06 11:01:25;;;;;;;16.45;9.60;;;;;;;4.45;53.88;96599.16;5082377;28;20068;-60
2022/03/06 11:03:54;;;;;;;17.90;12.60;;;;;;;3.88;53.64;96604.69;5082799;28;20068;-58
2022/03/06 11:06:23;;;;;;;14.68;10.85;;;;;;;4.20;53.36;96605.19;5085078;28;20083;-60
2022/03/06 11:08:54;;;;;;;19.35;11.10;;;;;;;4.32;52.32;96592.25;5084572;28;20518;-58
2022/03/06 11:11:22;;;;;;;16.40;10.77;;;;;;;4.84;53.09;96588.69;5083667;28;20114;-58
2022/03/06 11:13:53;;;;;;;13.45;9.30;;;;;;;4.28;52.50;96589.84;5084489;28;20573;-60
2022/03/06 11:16:22;;;;;;;15.82;10.38;;;;;;;4.69;50.99;96596.66;5084707;28;20071;-56
2022/03/06 11:18:53;;;;;;;15.95;11.23;;;;;;;5.05;51.52;96591.59;5082860;28;20059;-59
2022/03/06 11:21:24;;;;;;;;;;;;;;;4.91;52.26;96592.56;5085730;28;20540;-61
2022/03/06 11:23:53;;;;;;;;;;;;;;;4.61;51.29;96592.88;5079554;28;19967;-63
2022/03/06 11:26:26;;;;;;;;;;;;;;;4.96;51.61;96583.47;5076676;28;20091;-62